Wetterdaten: Woche 23.12.13 - 29.12.13 (KW52)
Datum Zeit Temp. A. Feuchte A. Luftdruck Regen Wind Richtung Taupunkt Windchill Windben
23.12.2013 00:00 1,3 C 79 % 1026,2 hPa 0,0 l/m 1,8 km/h N -1,9 C 1,3 C 7,6 km/h
23.12.2013 01:00 1,2 C 80 % 1026,0 hPa 0,0 l/m 2,1 km/h N -1,9 C 1,2 C 7,2 km/h
23.12.2013 02:00 1,2 C 79 % 1026,0 hPa 0,0 l/m 1,2 km/h N -2,0 C 1,2 C 6,0 km/h
23.12.2013 03:00 1,2 C 79 % 1025,7 hPa 0,0 l/m 1,1 km/h N -2,0 C 1,2 C 6,4 km/h
23.12.2013 04:00 1,1 C 80 % 1025,5 hPa 0,0 l/m 2,1 km/h N -2,0 C 1,1 C 8,0 km/h
23.12.2013 05:00 0,6 C 80 % 1025,4 hPa 0,0 l/m 2,7 km/h N -2,4 C 0,6 C 8,4 km/h
23.12.2013 06:00 0,4 C 80 % 1025,5 hPa 0,0 l/m 2,4 km/h N -2,6 C 0,4 C 7,2 km/h
23.12.2013 07:00 0,1 C 80 % 1025,6 hPa 0,0 l/m 1,9 km/h N -2,9 C 0,1 C 5,6 km/h
23.12.2013 08:00 -0,2 C 80 % 1025,8 hPa 0,0 l/m 1,6 km/h N -3,2 C -0,2 C 6,0 km/h
23.12.2013 09:00 0,2 C 80 % 1026,3 hPa 0,0 l/m 0,2 km/h N -2,9 C 0,2 C 2,4 km/h
23.12.2013 10:00 0,9 C 79 % 1026,3 hPa 0,0 l/m 0,2 km/h N -2,3 C 0,9 C 1,2 km/h
23.12.2013 11:00 2,1 C 79 % 1026,1 hPa 0,0 l/m 1,5 km/h N -1,2 C 2,1 C 5,6 km/h
23.12.2013 12:00 2,4 C 80 % 1025,5 hPa 0,0 l/m 2,8 km/h N -0,8 C 2,4 C 10,5 km/h
23.12.2013 13:00 3,4 C 83 % 1025,1 hPa 0,0 l/m 3,1 km/h N 0,7 C 3,4 C 10,5 km/h
23.12.2013 14:00 3,4 C 85 % 1024,7 hPa 0,0 l/m 3,6 km/h N 1,1 C 3,4 C 10,5 km/h
23.12.2013 15:00 2,5 C 85 % 1024,7 hPa 0,0 l/m 2,4 km/h N 0,3 C 2,5 C 9,2 km/h
23.12.2013 16:00 1,7 C 85 % 1024,9 hPa 0,0 l/m 3,2 km/h N -0,6 C 1,7 C 10,5 km/h
23.12.2013 17:00 1,3 C 83 % 1024,5 hPa 0,0 l/m 5,9 km/h N -1,2 C 0,5 C 16,5 km/h
23.12.2013 18:00 1,3 C 82 % 1024,0 hPa 0,0 l/m 4,5 km/h N -1,4 C 1,3 C 16,1 km/h
23.12.2013 19:00 1,6 C 81 % 1023,5 hPa 0,0 l/m 4,2 km/h N -1,3 C 1,6 C 11,3 km/h
23.12.2013 20:00 1,6 C 80 % 1022,9 hPa 0,0 l/m 4,6 km/h N -1,4 C 1,6 C 14,9 km/h
23.12.2013 21:00 1,7 C 80 % 1022,3 hPa 0,0 l/m 3,8 km/h N -1,3 C 1,7 C 12,1 km/h
23.12.2013 22:00 1,7 C 80 % 1021,6 hPa 0,0 l/m 2,6 km/h N -1,3 C 1,7 C 10,9 km/h
23.12.2013 23:00 1,7 C 79 % 1020,6 hPa 0,0 l/m 4,9 km/h N -1,5 C 1,7 C 12,5 km/h
24.12.2013 00:00 1,9 C 79 % 1019,5 hPa 0,0 l/m 1,6 km/h N -1,3 C 1,9 C 6,8 km/h
24.12.2013 01:00 2,1 C 79 % 1018,4 hPa 0,0 l/m 0,6 km/h N -1,2 C 2,1 C 4,4 km/h
24.12.2013 02:00 2,5 C 78 % 1017,7 hPa 0,0 l/m 0,3 km/h N -1,0 C 2,5 C 4,4 km/h
24.12.2013 03:00 2,5 C 78 % 1016,8 hPa 0,0 l/m 0,8 km/h N -0,9 C 2,5 C 3,6 km/h
24.12.2013 04:00 1,7 C 80 % 1016,1 hPa 0,0 l/m 0,1 km/h N -1,5 C 1,7 C 0,8 km/h
24.12.2013 05:00 -0,1 C 80 % 1015,7 hPa 0,0 l/m 0,0 km/h N -3,1 C -0,1 C 0,4 km/h
24.12.2013 06:00 -0,3 C 79 % 1015,1 hPa 0,0 l/m 0,1 km/h N -3,5 C -0,3 C 1,2 km/h
24.12.2013 07:00 1,1 C 79 % 1014,7 hPa 0,0 l/m 0,4 km/h N -2,2 C 1,1 C 3,6 km/h
24.12.2013 08:00 0,3 C 79 % 1014,5 hPa 0,0 l/m 0,1 km/h N -2,8 C 0,3 C 2,0 km/h
24.12.2013 09:00 2,4 C 77 % 1014,1 hPa 0,0 l/m 0,5 km/h N -1,2 C 2,4 C 2,8 km/h
24.12.2013 10:00 5,8 C 76 % 1013,3 hPa 0,0 l/m 0,1 km/h N 1,8 C 5,8 C 2,8 km/h
24.12.2013 11:00 8,2 C 79 % 1012,2 hPa 0,0 l/m 7,8 km/h N 4,8 C 6,7 C 22,9 km/h
24.12.2013 12:00 10,8 C 73 % 1010,8 hPa 0,0 l/m 9,3 km/h N 6,1 C 8,8 C 24,9 km/h
24.12.2013 13:00 11,8 C 66 % 1009,9 hPa 0,0 l/m 11,2 km/h N 5,7 C 8,9 C 27,4 km/h
24.12.2013 14:00 11,8 C 66 % 1009,4 hPa 0,0 l/m 10,0 km/h N 5,6 C 9,6 C 23,3 km/h
24.12.2013 15:00 11,2 C 67 % 1009,0 hPa 0,0 l/m 10,2 km/h N 5,3 C 8,8 C 28,2 km/h
24.12.2013 16:00 10,3 C 70 % 1008,5 hPa 0,0 l/m 8,1 km/h N 5,1 C 9,1 C 21,7 km/h
24.12.2013 17:00 9,3 C 72 % 1008,1 hPa 0,0 l/m 5,7 km/h N 4,5 C 9,3 C 16,9 km/h
24.12.2013 18:00 9,0 C 71 % 1007,6 hPa 0,0 l/m 6,4 km/h N 4,0 C 8,7 C 17,7 km/h
24.12.2013 19:00 8,7 C 70 % 1007,1 hPa 0,0 l/m 5,1 km/h N 3,4 C 8,6 C 13,3 km/h
24.12.2013 20:00 8,6 C 68 % 1006,4 hPa 0,0 l/m 5,6 km/h N 3,0 C 8,4 C 16,9 km/h
24.12.2013 21:00 8,4 C 68 % 1005,7 hPa 0,0 l/m 4,2 km/h N 2,8 C 8,4 C 11,3 km/h
24.12.2013 22:00 8,2 C 68 % 1005,0 hPa 0,0 l/m 4,5 km/h N 2,7 C 8,2 C 13,3 km/h
24.12.2013 23:00 7,1 C 71 % 1004,5 hPa 0,0 l/m 1,3 km/h N 2,2 C 7,1 C 6,8 km/h
25.12.2013 00:00 5,2 C 72 % 1004,2 hPa 0,0 l/m 0,7 km/h N 0,5 C 5,2 C 4,8 km/h
25.12.2013 01:00 1,9 C 80 % 1004,0 hPa 0,0 l/m 0,4 km/h N -1,2 C 1,9 C 4,4 km/h
25.12.2013 02:00 0,4 C 84 % 1003,5 hPa 0,0 l/m 0,2 km/h N -2,1 C 0,4 C 2,8 km/h
25.12.2013 03:00 -0,3 C 85 % 1002,9 hPa 0,0 l/m 0,0 km/h N -2,5 C -0,3 C 1,6 km/h
25.12.2013 04:00 -0,1 C 85 % 1002,2 hPa 0,0 l/m 0,3 km/h N -2,2 C -0,1 C 4,0 km/h
25.12.2013 05:00 0,2 C 85 % 1001,6 hPa 0,0 l/m 0,1 km/h N -2,1 C 0,2 C 0,8 km/h
25.12.2013 06:00 5,1 C 81 % 1000,9 hPa 0,0 l/m 4,7 km/h N 2,2 C 5,1 C 12,9 km/h
25.12.2013 07:00 8,6 C 73 % 1000,4 hPa 0,0 l/m 6,0 km/h N 3,9 C 8,5 C 15,7 km/h
25.12.2013 08:00 9,6 C 69 % 1000,3 hPa 0,0 l/m 8,5 km/h N 4,2 C 8,1 C 19,7 km/h
25.12.2013 09:00 10,5 C 69 % 1000,4 hPa 0,0 l/m 9,1 km/h N 5,0 C 8,7 C 21,3 km/h
25.12.2013 10:00 12,5 C 65 % 1000,2 hPa 0,0 l/m 10,1 km/h N 6,0 C 10,3 C 28,1 km/h
25.12.2013 11:00 13,9 C 61 % 999,3 hPa 0,0 l/m 11,6 km/h N 6,4 C 11,1 C 27,8 km/h
25.12.2013 12:00 13,5 C 61 % 998,6 hPa 0,0 l/m 10,2 km/h N 6,2 C 11,4 C 27,8 km/h
25.12.2013 13:00 12,9 C 65 % 998,5 hPa 0,0 l/m 11,0 km/h N 6,4 C 10,3 C 26,9 km/h
25.12.2013 14:00 12,6 C 66 % 998,2 hPa 0,0 l/m 10,6 km/h N 6,3 C 10,2 C 26,1 km/h
25.12.2013 15:00 12,3 C 66 % 998,3 hPa 0,0 l/m 12,4 km/h N 6,2 C 9,1 C 29,4 km/h
25.12.2013 16:00 12,1 C 66 % 998,4 hPa 0,0 l/m 11,0 km/h N 5,9 C 9,4 C 26,6 km/h
25.12.2013 17:00 12,4 C 63 % 998,6 hPa 0,0 l/m 10,9 km/h N 5,5 C 9,8 C 24,1 km/h
25.12.2013 18:00 12,7 C 61 % 998,0 hPa 0,0 l/m 11,5 km/h N 5,3 C 9,9 C 26,5 km/h
25.12.2013 19:00 12,7 C 61 % 997,6 hPa 0,0 l/m 12,8 km/h N 5,3 C 9,3 C 32,6 km/h
25.12.2013 20:00 12,1 C 63 % 997,4 hPa 0,0 l/m 8,0 km/h N 5,4 C 11,1 C 21,3 km/h
25.12.2013 21:00 12,2 C 63 % 997,3 hPa 0,0 l/m 8,3 km/h N 5,3 C 10,9 C 20,1 km/h
25.12.2013 22:00 12,1 C 63 % 997,3 hPa 0,0 l/m 7,4 km/h N 5,2 C 11,3 C 17,7 km/h
25.12.2013 23:00 11,9 C 64 % 997,7 hPa 0,0 l/m 7,2 km/h N 5,2 C 11,3 C 19,7 km/h
26.12.2013 00:00 11,8 C 64 % 997,6 hPa 0,0 l/m 7,0 km/h N 5,3 C 11,3 C 20,5 km/h
26.12.2013 01:00 11,6 C 65 % 997,5 hPa 0,0 l/m 9,1 km/h N 5,4 C 10,0 C 26,5 km/h
26.12.2013 02:00 11,7 C 63 % 998,2 hPa 0,0 l/m 15,0 km/h N 4,9 C 7,3 C 35,0 km/h
26.12.2013 03:00 11,4 C 65 % 997,9 hPa 0,0 l/m 11,7 km/h N 5,1 C 8,4 C 33,0 km/h
26.12.2013 04:00 11,1 C 68 % 997,6 hPa 0,0 l/m 13,4 km/h N 5,4 C 7,2 C 31,0 km/h
26.12.2013 05:00 10,1 C 70 % 998,9 hPa 0,0 l/m 10,3 km/h N 4,9 C 7,6 C 23,3 km/h
26.12.2013 06:00 9,3 C 72 % 999,0 hPa 0,0 l/m 1,4 km/h N 4,5 C 9,3 C 8,0 km/h
26.12.2013 07:00 9,1 C 72 % 998,7 hPa 0,0 l/m 0,9 km/h N 4,3 C 9,1 C 5,6 km/h
26.12.2013 08:00 8,9 C 74 % 998,4 hPa 0,0 l/m 0,1 km/h N 4,5 C 8,9 C 1,6 km/h
26.12.2013 09:00 8,5 C 77 % 998,4 hPa 0,0 l/m 0,7 km/h N 4,7 C 8,5 C 5,2 km/h
26.12.2013 10:00 9,3 C 74 % 998,1 hPa 0,0 l/m 4,5 km/h N 4,9 C 9,3 C 14,1 km/h
26.12.2013 11:00 9,5 C 73 % 998,0 hPa 0,0 l/m 0,8 km/h N 5,0 C 9,5 C 8,9 km/h
26.12.2013 12:00 9,4 C 74 % 997,4 hPa 0,0 l/m 1,4 km/h N 5,0 C 9,4 C 10,1 km/h
26.12.2013 13:00 9,1 C 75 % 997,1 hPa 0,0 l/m 3,1 km/h N 4,9 C 9,1 C 14,1 km/h
26.12.2013 14:00 8,3 C 77 % 997,2 hPa 0,0 l/m 1,5 km/h N 4,5 C 8,3 C 10,9 km/h
26.12.2013 15:00 8,1 C 79 % 997,7 hPa 0,0 l/m 1,1 km/h N 4,5 C 8,1 C 8,9 km/h
26.12.2013 16:00 7,8 C 80 % 998,6 hPa 0,0 l/m 1,6 km/h N 4,5 C 7,8 C 10,4 km/h
26.12.2013 17:00 7,9 C 80 % 999,0 hPa 0,0 l/m 3,2 km/h N 4,7 C 7,9 C 12,1 km/h
26.12.2013 18:00 7,7 C 83 % 999,6 hPa 0,0 l/m 5,6 km/h N 5,0 C 7,7 C 12,9 km/h
26.12.2013 19:00 7,6 C 84 % 1000,3 hPa 0,5 l/m 4,8 km/h N 5,0 C 7,6 C 12,9 km/h
26.12.2013 20:00 7,1 C 85 % 1000,7 hPa 0,0 l/m 0,8 km/h N 4,7 C 7,1 C 6,4 km/h
26.12.2013 21:00 6,9 C 84 % 1001,6 hPa 0,0 l/m 0,8 km/h N 4,3 C 6,9 C 4,8 km/h
26.12.2013 22:00 6,8 C 84 % 1002,6 hPa 1,3 l/m 0,0 km/h N 4,2 C 6,8 C 3,2 km/h
26.12.2013 23:00 6,9 C 83 % 1003,6 hPa 2,6 l/m 0,0 km/h N 4,2 C 6,9 C 4,8 km/h
27.12.2013 00:00 6,7 C 83 % 1004,3 hPa 1,0 l/m 2,4 km/h N 3,9 C 6,7 C 12,9 km/h
27.12.2013 01:00 6,0 C 85 % 1005,2 hPa 0,5 l/m 4,0 km/h N 3,6 C 6,0 C 14,5 km/h
27.12.2013 02:00 6,1 C 84 % 1006,2 hPa 0,3 l/m 6,4 km/h N 3,6 C 6,1 C 25,0 km/h
27.12.2013 03:00 6,4 C 80 % 1006,8 hPa 0,0 l/m 8,0 km/h N 3,2 C 5,1 C 22,5 km/h
27.12.2013 04:00 6,6 C 79 % 1007,5 hPa 0,0 l/m 9,7 km/h N 3,1 C 4,0 C 35,4 km/h
27.12.2013 05:00 6,6 C 77 % 1008,7 hPa 0,0 l/m 6,4 km/h N 2,9 C 6,6 C 20,9 km/h
27.12.2013 06:00 6,6 C 77 % 1009,8 hPa 0,0 l/m 6,9 km/h N 2,8 C 6,1 C 18,2 km/h
27.12.2013 07:00 6,4 C 77 % 1010,5 hPa 0,0 l/m 8,7 km/h N 2,6 C 4,6 C 19,3 km/h
27.12.2013 08:00 6,4 C 77 % 1011,2 hPa 0,0 l/m 10,8 km/h N 2,6 C 3,1 C 23,3 km/h
27.12.2013 09:00 6,7 C 77 % 1011,9 hPa 0,0 l/m 7,0 km/h N 3,0 C 5,9 C 18,1 km/h
27.12.2013 10:00 7,5 C 75 % 1012,2 hPa 0,0 l/m 7,8 km/h N 3,3 C 6,4 C 20,5 km/h
27.12.2013 11:00 7,9 C 74 % 1012,2 hPa 0,0 l/m 6,1 km/h N 3,4 C 7,5 C 17,7 km/h
27.12.2013 12:00 8,3 C 72 % 1012,3 hPa 0,0 l/m 3,5 km/h N 3,5 C 8,3 C 10,5 km/h
27.12.2013 13:00 8,6 C 71 % 1012,2 hPa 0,0 l/m 1,9 km/h N 3,7 C 8,6 C 8,4 km/h
27.12.2013 14:00 8,8 C 69 % 1011,8 hPa 0,0 l/m 1,2 km/h N 3,4 C 8,8 C 6,4 km/h
27.12.2013 15:00 8,5 C 70 % 1011,9 hPa 0,0 l/m 0,1 km/h N 3,3 C 8,5 C 0,8 km/h
27.12.2013 16:00 7,2 C 75 % 1012,2 hPa 0,0 l/m 1,4 km/h N 2,9 C 7,2 C 6,4 km/h
27.12.2013 17:00 6,4 C 79 % 1012,1 hPa 0,0 l/m 3,9 km/h N 2,9 C 6,4 C 11,3 km/h
27.12.2013 18:00 5,8 C 81 % 1012,7 hPa 0,0 l/m 3,3 km/h N 2,7 C 5,8 C 9,6 km/h
27.12.2013 19:00 5,7 C 82 % 1013,1 hPa 0,0 l/m 4,2 km/h N 2,7 C 5,7 C 12,9 km/h
27.12.2013 20:00 5,4 C 83 % 1013,0 hPa 0,0 l/m 3,8 km/h N 2,6 C 5,3 C 13,3 km/h
27.12.2013 21:00 5,3 C 83 % 1012,8 hPa 0,0 l/m 5,4 km/h N 2,6 C 5,2 C 14,9 km/h
27.12.2013 22:00 5,0 C 83 % 1012,7 hPa 0,0 l/m 2,8 km/h N 2,4 C 5,0 C 11,7 km/h
27.12.2013 23:00 4,6 C 84 % 1012,7 hPa 0,0 l/m 1,1 km/h N 2,1 C 4,6 C 6,0 km/h
28.12.2013 00:00 4,0 C 85 % 1012,3 hPa 0,0 l/m 0,4 km/h N 1,6 C 4,0 C 3,2 km/h
28.12.2013 01:00 3,0 C 85 % 1011,9 hPa 0,0 l/m 0,1 km/h N 0,7 C 3,0 C 1,2 km/h
28.12.2013 02:00 2,0 C 85 % 1012,1 hPa 0,0 l/m 0,2 km/h N -0,3 C 2,0 C 3,2 km/h
28.12.2013 03:00 3,0 C 84 % 1011,9 hPa 0,0 l/m 0,5 km/h N 0,6 C 3,0 C 4,8 km/h
28.12.2013 04:00 2,8 C 84 % 1011,2 hPa 0,0 l/m 0,1 km/h N 0,4 C 2,8 C 3,7 km/h
28.12.2013 05:00 2,8 C 84 % 1011,2 hPa 0,0 l/m 0,3 km/h N 0,3 C 2,8 C 5,2 km/h
28.12.2013 06:00 2,8 C 83 % 1011,0 hPa 0,0 l/m 0,2 km/h N 0,2 C 2,8 C 3,6 km/h
28.12.2013 07:00 2,8 C 83 % 1011,0 hPa 0,0 l/m 1,0 km/h N 0,1 C 2,8 C 8,1 km/h
28.12.2013 08:00 3,3 C 83 % 1011,6 hPa 0,0 l/m 0,7 km/h N 0,7 C 3,3 C 5,2 km/h
28.12.2013 09:00 4,8 C 82 % 1011,5 hPa 0,0 l/m 0,4 km/h N 2,0 C 4,8 C 5,6 km/h
28.12.2013 10:00 6,9 C 84 % 1011,2 hPa 0,0 l/m 1,8 km/h N 4,3 C 6,9 C 9,6 km/h
28.12.2013 11:00 8,8 C 77 % 1010,6 hPa 0,0 l/m 9,1 km/h N 5,1 C 6,9 C 22,9 km/h
28.12.2013 12:00 8,5 C 78 % 1009,8 hPa 0,0 l/m 9,8 km/h N 4,8 C 6,1 C 25,8 km/h
28.12.2013 13:00 8,2 C 78 % 1009,2 hPa 0,0 l/m 9,8 km/h N 4,6 C 5,8 C 22,9 km/h
28.12.2013 14:00 8,2 C 76 % 1008,4 hPa 0,0 l/m 9,3 km/h N 4,2 C 6,1 C 24,1 km/h
28.12.2013 15:00 7,5 C 77 % 1008,6 hPa 0,0 l/m 2,5 km/h N 3,7 C 7,5 C 10,5 km/h
28.12.2013 16:00 7,1 C 80 % 1008,3 hPa 0,0 l/m 3,7 km/h N 3,8 C 7,1 C 15,3 km/h
28.12.2013 17:00 7,1 C 81 % 1008,2 hPa 0,0 l/m 5,9 km/h N 4,0 C 6,8 C 18,5 km/h
28.12.2013 18:00 6,9 C 82 % 1008,0 hPa 0,0 l/m 5,8 km/h N 4,0 C 6,8 C 14,9 km/h
28.12.2013 19:00 6,8 C 82 % 1007,5 hPa 0,0 l/m 3,4 km/h N 3,9 C 6,8 C 10,5 km/h
28.12.2013 20:00 6,7 C 82 % 1007,0 hPa 0,0 l/m 3,0 km/h N 3,7 C 6,7 C 9,3 km/h
28.12.2013 21:00 5,6 C 81 % 1006,8 hPa 0,0 l/m 0,8 km/h N 2,6 C 5,6 C 6,4 km/h
Min-Datum _ 24.12.13 25.12.13 26.12.13 - 23.12.13 - 24.12.13 23.12.13 23.12.13
_ Min-Zeit 06:15 11:15 13:30 - 09:30 - 06:00 17:45 09:30
Minimum _ -0,9 C 59 % 996,9 hPa - 0,0 km/h - -3,9 C -2,1 C 0,0 km/h
Max-Datum _ 25.12.13 25.12.13 23.12.13 26.12.13 26.12.13 - 24.12.13 25.12.13 26.12.13
_ Max-Zeit 11:30 03:45 09:45 23:00 02:00 - 11:45 12:15 03:30
Maximum _ 14,2 C 86 % 1026,4 hPa 2,6 l/m 18,8 km/h
N
- 6,8 C 12,0 C 41,8 km/h
N
Durchschnitt _ 6,3 C 76 % 1009,3 hPa #6,2 l/m 4,3 km/h N 2,3 C 5,7 C 13,1 km/h